sensor_id;sensor_type;location;lat;lon;timestamp;P1;durP1;ratioP1;P2;durP2;ratioP2
67503;SDS011;54351;49.108;1.502;2022-08-19T00:01:53;49.08;;;46.08;;
67503;SDS011;54351;49.108;1.502;2022-08-19T00:04:21;47.85;;;45.10;;
67503;SDS011;54351;49.108;1.502;2022-08-19T00:06:47;45.20;;;42.47;;
67503;SDS011;54351;49.108;1.502;2022-08-19T00:09:14;51.55;;;48.35;;
67503;SDS011;54351;49.108;1.502;2022-08-19T00:11:41;35.55;;;33.28;;
67503;SDS011;54351;49.108;1.502;2022-08-19T00:14:08;48.95;;;46.10;;
67503;SDS011;54351;49.108;1.502;2022-08-19T00:16:35;23.88;;;22.08;;
67503;SDS011;54351;49.108;1.502;2022-08-19T00:19:01;16.77;;;15.43;;
67503;SDS011;54351;49.108;1.502;2022-08-19T00:21:28;22.30;;;20.80;;
67503;SDS011;54351;49.108;1.502;2022-08-19T00:23:54;31.95;;;29.85;;
67503;SDS011;54351;49.108;1.502;2022-08-19T00:26:24;20.85;;;19.40;;
67503;SDS011;54351;49.108;1.502;2022-08-19T00:28:50;36.15;;;33.90;;
67503;SDS011;54351;49.108;1.502;2022-08-19T00:31:17;34.00;;;31.83;;
67503;SDS011;54351;49.108;1.502;2022-08-19T00:33:43;10.90;;;9.95;;
67503;SDS011;54351;49.108;1.502;2022-08-19T00:36:09;10.48;;;9.55;;
67503;SDS011;54351;49.108;1.502;2022-08-19T00:38:36;17.83;;;16.45;;
67503;SDS011;54351;49.108;1.502;2022-08-19T00:41:06;9.75;;;8.32;;
67503;SDS011;54351;49.108;1.502;2022-08-19T00:43:33;11.05;;;9.95;;
67503;SDS011;54351;49.108;1.502;2022-08-19T00:45:59;24.13;;;22.60;;
67503;SDS011;54351;49.108;1.502;2022-08-19T00:48:28;10.30;;;9.43;;
67503;SDS011;54351;49.108;1.502;2022-08-19T00:50:54;19.88;;;18.50;;
67503;SDS011;54351;49.108;1.502;2022-08-19T00:53:22;24.23;;;22.67;;
67503;SDS011;54351;49.108;1.502;2022-08-19T00:55:49;17.58;;;16.20;;
67503;SDS011;54351;49.108;1.502;2022-08-19T00:58:17;19.98;;;18.48;;
67503;SDS011;54351;49.108;1.502;2022-08-19T01:00:44;23.17;;;21.45;;
67503;SDS011;54351;49.108;1.502;2022-08-19T01:03:13;12.15;;;11.02;;
67503;SDS011;54351;49.108;1.502;2022-08-19T01:05:39;26.25;;;24.27;;
67503;SDS011;54351;49.108;1.502;2022-08-19T01:08:06;52.80;;;49.47;;
67503;SDS011;54351;49.108;1.502;2022-08-19T01:10:36;62.90;;;59.22;;
67503;SDS011;54351;49.108;1.502;2022-08-19T01:13:03;99.18;;;93.07;;
67503;SDS011;54351;49.108;1.502;2022-08-19T01:15:31;106.85;;;100.82;;
67503;SDS011;54351;49.108;1.502;2022-08-19T01:18:08;164.52;;;155.40;;
67503;SDS011;54351;49.108;1.502;2022-08-19T01:20:34;121.30;;;114.22;;
67503;SDS011;54351;49.108;1.502;2022-08-19T01:23:00;158.30;;;149.68;;
67503;SDS011;54351;49.108;1.502;2022-08-19T01:25:39;64.95;;;61.13;;
67503;SDS011;54351;49.108;1.502;2022-08-19T01:28:07;53.58;;;49.88;;
67503;SDS011;54351;49.108;1.502;2022-08-19T01:30:34;57.75;;;54.15;;
67503;SDS011;54351;49.108;1.502;2022-08-19T01:33:00;51.63;;;48.35;;
67503;SDS011;54351;49.108;1.502;2022-08-19T01:35:28;37.00;;;34.60;;
67503;SDS011;54351;49.108;1.502;2022-08-19T01:38:05;17.67;;;16.10;;
67503;SDS011;54351;49.108;1.502;2022-08-19T01:40:33;11.00;;;6.20;;
67503;SDS011;54351;49.108;1.502;2022-08-19T01:43:00;9.45;;;6.97;;
67503;SDS011;54351;49.108;1.502;2022-08-19T01:45:27;28.60;;;26.63;;
67503;SDS011;54351;49.108;1.502;2022-08-19T01:47:53;7.80;;;6.03;;
67503;SDS011;54351;49.108;1.502;2022-08-19T01:50:20;12.73;;;11.55;;
67503;SDS011;54351;49.108;1.502;2022-08-19T01:52:46;11.70;;;6.78;;
67503;SDS011;54351;49.108;1.502;2022-08-19T01:55:14;19.55;;;17.77;;
67503;SDS011;54351;49.108;1.502;2022-08-19T01:57:41;36.70;;;34.22;;
67503;SDS011;54351;49.108;1.502;2022-08-19T02:00:10;9.40;;;6.28;;
67503;SDS011;54351;49.108;1.502;2022-08-19T02:02:37;25.67;;;23.98;;
67503;SDS011;54351;49.108;1.502;2022-08-19T02:05:04;18.63;;;16.92;;
67503;SDS011;54351;49.108;1.502;2022-08-19T02:07:32;15.77;;;14.43;;
67503;SDS011;54351;49.108;1.502;2022-08-19T02:09:58;9.55;;;8.52;;
67503;SDS011;54351;49.108;1.502;2022-08-19T02:12:24;11.95;;;9.60;;
67503;SDS011;54351;49.108;1.502;2022-08-19T02:14:50;16.10;;;14.43;;
67503;SDS011;54351;49.108;1.502;2022-08-19T02:17:17;13.25;;;9.43;;
67503;SDS011;54351;49.108;1.502;2022-08-19T02:19:43;16.33;;;13.20;;
67503;SDS011;54351;49.108;1.502;2022-08-19T02:22:09;13.77;;;12.40;;
67503;SDS011;54351;49.108;1.502;2022-08-19T02:24:35;16.30;;;14.15;;
67503;SDS011;54351;49.108;1.502;2022-08-19T02:27:04;14.02;;;12.57;;
67503;SDS011;54351;49.108;1.502;2022-08-19T02:29:30;18.90;;;13.52;;
67503;SDS011;54351;49.108;1.502;2022-08-19T02:31:57;15.95;;;12.73;;
67503;SDS011;54351;49.108;1.502;2022-08-19T02:34:23;12.48;;;11.18;;
67503;SDS011;54351;49.108;1.502;2022-08-19T02:36:50;12.60;;;11.27;;
67503;SDS011;54351;49.108;1.502;2022-08-19T02:39:16;11.68;;;10.55;;
67503;SDS011;54351;49.108;1.502;2022-08-19T02:41:42;15.07;;;12.43;;
67503;SDS011;54351;49.108;1.502;2022-08-19T02:44:08;12.93;;;10.40;;
67503;SDS011;54351;49.108;1.502;2022-08-19T02:46:34;18.77;;;17.23;;
67503;SDS011;54351;49.108;1.502;2022-08-19T02:49:05;21.15;;;19.45;;
67503;SDS011;54351;49.108;1.502;2022-08-19T02:51:33;21.30;;;19.55;;
67503;SDS011;54351;49.108;1.502;2022-08-19T02:53:59;26.35;;;24.10;;
67503;SDS011;54351;49.108;1.502;2022-08-19T02:56:26;27.60;;;25.63;;
67503;SDS011;54351;49.108;1.502;2022-08-19T02:58:53;34.75;;;32.15;;
67503;SDS011;54351;49.108;1.502;2022-08-19T03:01:21;26.15;;;23.98;;
67503;SDS011;54351;49.108;1.502;2022-08-19T03:03:47;24.90;;;23.10;;
67503;SDS011;54351;49.108;1.502;2022-08-19T03:06:14;28.45;;;26.25;;
67503;SDS011;54351;49.108;1.502;2022-08-19T03:08:41;23.42;;;21.40;;
67503;SDS011;54351;49.108;1.502;2022-08-19T03:13:40;18.23;;;16.55;;
67503;SDS011;54351;49.108;1.502;2022-08-19T03:16:08;15.38;;;14.02;;
67503;SDS011;54351;49.108;1.502;2022-08-19T03:18:35;19.85;;;18.45;;
67503;SDS011;54351;49.108;1.502;2022-08-19T03:21:02;19.77;;;18.27;;
67503;SDS011;54351;49.108;1.502;2022-08-19T03:23:28;19.67;;;17.70;;
67503;SDS011;54351;49.108;1.502;2022-08-19T03:25:54;19.98;;;18.38;;
67503;SDS011;54351;49.108;1.502;2022-08-19T03:28:20;18.80;;;17.30;;
67503;SDS011;54351;49.108;1.502;2022-08-19T03:31:22;17.65;;;16.30;;
67503;SDS011;54351;49.108;1.502;2022-08-19T03:33:41;23.52;;;21.30;;
67503;SDS011;54351;49.108;1.502;2022-08-19T03:36:12;18.98;;;17.25;;
67503;SDS011;54351;49.108;1.502;2022-08-19T03:38:40;17.58;;;16.17;;
67503;SDS011;54351;49.108;1.502;2022-08-19T03:41:08;12.35;;;10.60;;
67503;SDS011;54351;49.108;1.502;2022-08-19T03:43:35;13.10;;;11.90;;
67503;SDS011;54351;49.108;1.502;2022-08-19T03:46:02;17.70;;;16.50;;
67503;SDS011;54351;49.108;1.502;2022-08-19T03:48:29;17.73;;;16.30;;
67503;SDS011;54351;49.108;1.502;2022-08-19T03:50:55;20.00;;;18.40;;
67503;SDS011;54351;49.108;1.502;2022-08-19T03:53:23;22.33;;;20.73;;
67503;SDS011;54351;49.108;1.502;2022-08-19T03:55:49;16.15;;;14.93;;
67503;SDS011;54351;49.108;1.502;2022-08-19T03:58:15;18.55;;;17.10;;
67503;SDS011;54351;49.108;1.502;2022-08-19T04:00:42;12.77;;;11.77;;
67503;SDS011;54351;49.108;1.502;2022-08-19T04:03:08;21.13;;;19.65;;
67503;SDS011;54351;49.108;1.502;2022-08-19T04:05:34;19.75;;;17.83;;
67503;SDS011;54351;49.108;1.502;2022-08-19T04:08:16;20.08;;;18.48;;
67503;SDS011;54351;49.108;1.502;2022-08-19T04:10:48;18.02;;;16.63;;
67503;SDS011;54351;49.108;1.502;2022-08-19T04:13:16;20.60;;;18.58;;
67503;SDS011;54351;49.108;1.502;2022-08-19T04:15:44;22.63;;;20.90;;
67503;SDS011;54351;49.108;1.502;2022-08-19T04:18:11;14.07;;;12.85;;
67503;SDS011;54351;49.108;1.502;2022-08-19T04:20:45;16.95;;;12.40;;
67503;SDS011;54351;49.108;1.502;2022-08-19T04:23:11;12.48;;;9.60;;
67503;SDS011;54351;49.108;1.502;2022-08-19T04:25:42;9.65;;;8.82;;
67503;SDS011;54351;49.108;1.502;2022-08-19T04:28:09;12.38;;;11.32;;
67503;SDS011;54351;49.108;1.502;2022-08-19T04:30:39;18.65;;;13.25;;
67503;SDS011;54351;49.108;1.502;2022-08-19T04:33:06;14.25;;;11.85;;
67503;SDS011;54351;49.108;1.502;2022-08-19T04:35:36;14.55;;;9.98;;
67503;SDS011;54351;49.108;1.502;2022-08-19T04:38:03;15.52;;;11.93;;
67503;SDS011;54351;49.108;1.502;2022-08-19T04:40:29;18.30;;;16.85;;
67503;SDS011;54351;49.108;1.502;2022-08-19T04:43:14;27.05;;;25.20;;
67503;SDS011;54351;49.108;1.502;2022-08-19T04:45:41;39.53;;;37.10;;
67503;SDS011;54351;49.108;1.502;2022-08-19T04:48:08;32.33;;;29.98;;
67503;SDS011;54351;49.108;1.502;2022-08-19T04:50:35;40.85;;;38.17;;
67503;SDS011;54351;49.108;1.502;2022-08-19T04:53:01;36.20;;;33.90;;
67503;SDS011;54351;49.108;1.502;2022-08-19T04:55:28;43.28;;;40.83;;
67503;SDS011;54351;49.108;1.502;2022-08-19T04:57:54;45.70;;;42.58;;
67503;SDS011;54351;49.108;1.502;2022-08-19T05:00:23;49.95;;;46.85;;
67503;SDS011;54351;49.108;1.502;2022-08-19T05:02:49;85.13;;;80.38;;
67503;SDS011;54351;49.108;1.502;2022-08-19T05:05:15;70.35;;;66.47;;
67503;SDS011;54351;49.108;1.502;2022-08-19T05:07:41;67.85;;;64.15;;
67503;SDS011;54351;49.108;1.502;2022-08-19T05:10:08;78.18;;;73.53;;
67503;SDS011;54351;49.108;1.502;2022-08-19T05:12:34;89.25;;;84.18;;
67503;SDS011;54351;49.108;1.502;2022-08-19T05:15:02;116.38;;;110.20;;
67503;SDS011;54351;49.108;1.502;2022-08-19T05:17:28;151.35;;;143.32;;
67503;SDS011;54351;49.108;1.502;2022-08-19T05:19:57;154.43;;;146.40;;
67503;SDS011;54351;49.108;1.502;2022-08-19T05:22:42;147.15;;;139.02;;
67503;SDS011;54351;49.108;1.502;2022-08-19T05:25:11;137.40;;;130.02;;
67503;SDS011;54351;49.108;1.502;2022-08-19T05:27:37;165.00;;;156.00;;
67503;SDS011;54351;49.108;1.502;2022-08-19T05:30:07;203.88;;;193.40;;
67503;SDS011;54351;49.108;1.502;2022-08-19T05:32:33;185.45;;;175.73;;
67503;SDS011;54351;49.108;1.502;2022-08-19T05:35:00;161.32;;;152.73;;
67503;SDS011;54351;49.108;1.502;2022-08-19T05:37:26;171.77;;;163.00;;
67503;SDS011;54351;49.108;1.502;2022-08-19T05:39:52;161.07;;;152.48;;
67503;SDS011;54351;49.108;1.502;2022-08-19T05:42:19;161.85;;;153.10;;
67503;SDS011;54351;49.108;1.502;2022-08-19T05:44:47;150.45;;;142.48;;
67503;SDS011;54351;49.108;1.502;2022-08-19T05:47:14;90.20;;;85.22;;
67503;SDS011;54351;49.108;1.502;2022-08-19T05:49:41;124.75;;;118.05;;
67503;SDS011;54351;49.108;1.502;2022-08-19T05:52:09;102.55;;;96.90;;
67503;SDS011;54351;49.108;1.502;2022-08-19T05:54:37;73.53;;;69.45;;
67503;SDS011;54351;49.108;1.502;2022-08-19T05:57:05;57.65;;;54.20;;
67503;SDS011;54351;49.108;1.502;2022-08-19T05:59:32;58.75;;;55.25;;
67503;SDS011;54351;49.108;1.502;2022-08-19T06:02:00;41.15;;;38.63;;
67503;SDS011;54351;49.108;1.502;2022-08-19T06:04:26;39.95;;;37.70;;
67503;SDS011;54351;49.108;1.502;2022-08-19T06:06:53;34.47;;;32.25;;
67503;SDS011;54351;49.108;1.502;2022-08-19T06:09:20;33.70;;;31.63;;
67503;SDS011;54351;49.108;1.502;2022-08-19T06:11:49;33.55;;;31.63;;
67503;SDS011;54351;49.108;1.502;2022-08-19T06:14:19;31.83;;;29.98;;
67503;SDS011;54351;49.108;1.502;2022-08-19T06:16:46;30.52;;;28.73;;
67503;SDS011;54351;49.108;1.502;2022-08-19T06:19:13;34.40;;;32.45;;
67503;SDS011;54351;49.108;1.502;2022-08-19T06:21:41;32.90;;;30.95;;
67503;SDS011;54351;49.108;1.502;2022-08-19T06:24:09;33.53;;;31.58;;
67503;SDS011;54351;49.108;1.502;2022-08-19T06:26:37;24.13;;;22.73;;
67503;SDS011;54351;49.108;1.502;2022-08-19T06:29:04;23.70;;;22.23;;
67503;SDS011;54351;49.108;1.502;2022-08-19T06:31:31;20.00;;;18.80;;
67503;SDS011;54351;49.108;1.502;2022-08-19T06:33:59;20.83;;;19.40;;
67503;SDS011;54351;49.108;1.502;2022-08-19T06:36:27;18.65;;;17.30;;
67503;SDS011;54351;49.108;1.502;2022-08-19T06:38:56;18.65;;;17.60;;
67503;SDS011;54351;49.108;1.502;2022-08-19T06:41:23;19.77;;;18.48;;
67503;SDS011;54351;49.108;1.502;2022-08-19T06:43:49;18.65;;;17.55;;
67503;SDS011;54351;49.108;1.502;2022-08-19T06:46:15;31.20;;;29.08;;
67503;SDS011;54351;49.108;1.502;2022-08-19T06:48:43;18.10;;;16.98;;
67503;SDS011;54351;49.108;1.502;2022-08-19T06:51:09;18.13;;;17.00;;
67503;SDS011;54351;49.108;1.502;2022-08-19T06:53:35;17.63;;;16.48;;
67503;SDS011;54351;49.108;1.502;2022-08-19T06:56:04;20.95;;;19.33;;
67503;SDS011;54351;49.108;1.502;2022-08-19T06:58:30;19.77;;;18.58;;
67503;SDS011;54351;49.108;1.502;2022-08-19T07:00:58;20.42;;;19.20;;
67503;SDS011;54351;49.108;1.502;2022-08-19T07:03:27;21.20;;;20.02;;
67503;SDS011;54351;49.108;1.502;2022-08-19T07:05:53;16.52;;;15.45;;
67503;SDS011;54351;49.108;1.502;2022-08-19T07:08:19;16.65;;;15.65;;
67503;SDS011;54351;49.108;1.502;2022-08-19T07:10:46;15.05;;;13.95;;
67503;SDS011;54351;49.108;1.502;2022-08-19T07:13:13;18.48;;;17.00;;
67503;SDS011;54351;49.108;1.502;2022-08-19T07:15:39;16.83;;;15.75;;
67503;SDS011;54351;49.108;1.502;2022-08-19T07:18:05;18.52;;;17.30;;
67503;SDS011;54351;49.108;1.502;2022-08-19T07:20:31;18.05;;;16.48;;
67503;SDS011;54351;49.108;1.502;2022-08-19T07:22:57;17.95;;;16.70;;
67503;SDS011;54351;49.108;1.502;2022-08-19T07:25:23;17.67;;;16.58;;
67503;SDS011;54351;49.108;1.502;2022-08-19T07:27:51;18.98;;;17.77;;
67503;SDS011;54351;49.108;1.502;2022-08-19T07:30:17;19.25;;;17.92;;
67503;SDS011;54351;49.108;1.502;2022-08-19T07:32:43;23.42;;;21.92;;
67503;SDS011;54351;49.108;1.502;2022-08-19T07:35:09;19.90;;;18.58;;
67503;SDS011;54351;49.108;1.502;2022-08-19T07:37:35;18.23;;;17.02;;
67503;SDS011;54351;49.108;1.502;2022-08-19T07:40:06;16.42;;;15.32;;
67503;SDS011;54351;49.108;1.502;2022-08-19T07:42:32;18.43;;;17.03;;
67503;SDS011;54351;49.108;1.502;2022-08-19T07:44:58;21.67;;;20.25;;
67503;SDS011;54351;49.108;1.502;2022-08-19T07:47:24;21.45;;;19.77;;
67503;SDS011;54351;49.108;1.502;2022-08-19T07:49:52;19.85;;;18.35;;
67503;SDS011;54351;49.108;1.502;2022-08-19T07:52:18;18.08;;;16.83;;
67503;SDS011;54351;49.108;1.502;2022-08-19T07:54:45;18.42;;;17.13;;
67503;SDS011;54351;49.108;1.502;2022-08-19T07:57:11;16.45;;;15.48;;
67503;SDS011;54351;49.108;1.502;2022-08-19T07:59:37;20.92;;;19.73;;
67503;SDS011;54351;49.108;1.502;2022-08-19T08:02:03;16.48;;;15.45;;
67503;SDS011;54351;49.108;1.502;2022-08-19T08:04:29;17.65;;;16.05;;
67503;SDS011;54351;49.108;1.502;2022-08-19T08:07:14;20.33;;;18.90;;
67503;SDS011;54351;49.108;1.502;2022-08-19T08:09:59;20.15;;;18.75;;
67503;SDS011;54351;49.108;1.502;2022-08-19T08:12:26;15.65;;;14.60;;
67503;SDS011;54351;49.108;1.502;2022-08-19T08:14:54;15.63;;;14.52;;
67503;SDS011;54351;49.108;1.502;2022-08-19T08:17:22;17.35;;;16.33;;
67503;SDS011;54351;49.108;1.502;2022-08-19T08:19:49;20.92;;;19.73;;
67503;SDS011;54351;49.108;1.502;2022-08-19T08:22:16;20.80;;;19.27;;
67503;SDS011;54351;49.108;1.502;2022-08-19T08:25:03;27.95;;;26.30;;
67503;SDS011;54351;49.108;1.502;2022-08-19T08:27:29;21.85;;;20.13;;
67503;SDS011;54351;49.108;1.502;2022-08-19T08:29:56;51.42;;;48.13;;
67503;SDS011;54351;49.108;1.502;2022-08-19T08:32:22;54.17;;;50.97;;
67503;SDS011;54351;49.108;1.502;2022-08-19T08:34:49;67.63;;;63.88;;
67503;SDS011;54351;49.108;1.502;2022-08-19T08:37:15;67.10;;;63.40;;
67503;SDS011;54351;49.108;1.502;2022-08-19T08:39:41;84.38;;;79.65;;
67503;SDS011;54351;49.108;1.502;2022-08-19T08:47:03;102.30;;;96.78;;
67503;SDS011;54351;49.108;1.502;2022-08-19T08:49:41;74.10;;;70.10;;
67503;SDS011;54351;49.108;1.502;2022-08-19T08:52:11;109.35;;;103.38;;
67503;SDS011;54351;49.108;1.502;2022-08-19T08:54:41;120.55;;;113.90;;
67503;SDS011;54351;49.108;1.502;2022-08-19T08:57:12;134.57;;;126.93;;
67503;SDS011;54351;49.108;1.502;2022-08-19T08:59:40;135.45;;;128.10;;
67503;SDS011;54351;49.108;1.502;2022-08-19T09:02:07;119.90;;;113.45;;
67503;SDS011;54351;49.108;1.502;2022-08-19T09:04:35;134.27;;;126.97;;
67503;SDS011;54351;49.108;1.502;2022-08-19T09:09:40;123.30;;;116.45;;
67503;SDS011;54351;49.108;1.502;2022-08-19T09:12:14;142.38;;;134.60;;
67503;SDS011;54351;49.108;1.502;2022-08-19T09:17:10;159.60;;;151.00;;
67503;SDS011;54351;49.108;1.502;2022-08-19T09:22:15;152.25;;;143.93;;
67503;SDS011;54351;49.108;1.502;2022-08-19T09:24:41;146.15;;;137.68;;
67503;SDS011;54351;49.108;1.502;2022-08-19T09:27:07;138.40;;;130.82;;
67503;SDS011;54351;49.108;1.502;2022-08-19T09:29:33;153.40;;;143.98;;
67503;SDS011;54351;49.108;1.502;2022-08-19T09:31:59;153.80;;;145.40;;
67503;SDS011;54351;49.108;1.502;2022-08-19T09:34:25;146.25;;;138.32;;
67503;SDS011;54351;49.108;1.502;2022-08-19T09:36:52;163.05;;;154.30;;
67503;SDS011;54351;49.108;1.502;2022-08-19T09:39:20;168.77;;;159.68;;
67503;SDS011;54351;49.108;1.502;2022-08-19T09:41:46;160.02;;;151.48;;
67503;SDS011;54351;49.108;1.502;2022-08-19T09:44:14;158.18;;;149.52;;
67503;SDS011;54351;49.108;1.502;2022-08-19T09:46:41;148.43;;;140.38;;
67503;SDS011;54351;49.108;1.502;2022-08-19T09:49:07;137.65;;;130.15;;
67503;SDS011;54351;49.108;1.502;2022-08-19T09:51:33;151.57;;;143.43;;
67503;SDS011;54351;49.108;1.502;2022-08-19T09:54:00;131.80;;;124.50;;
67503;SDS011;54351;49.108;1.502;2022-08-19T09:56:26;148.48;;;140.52;;
67503;SDS011;54351;49.108;1.502;2022-08-19T09:58:53;153.40;;;145.13;;
67503;SDS011;54351;49.108;1.502;2022-08-19T10:01:20;150.15;;;142.15;;
67503;SDS011;54351;49.108;1.502;2022-08-19T10:03:51;145.10;;;137.27;;
67503;SDS011;54351;49.108;1.502;2022-08-19T10:06:20;134.65;;;127.40;;
67503;SDS011;54351;49.108;1.502;2022-08-19T10:08:46;156.30;;;147.85;;
67503;SDS011;54351;49.108;1.502;2022-08-19T10:11:12;150.82;;;142.80;;
67503;SDS011;54351;49.108;1.502;2022-08-19T10:13:43;136.93;;;129.63;;
67503;SDS011;54351;49.108;1.502;2022-08-19T10:16:14;139.60;;;131.82;;
67503;SDS011;54351;49.108;1.502;2022-08-19T10:18:41;136.93;;;129.50;;
67503;SDS011;54351;49.108;1.502;2022-08-19T10:23:38;137.55;;;129.90;;
67503;SDS011;54351;49.108;1.502;2022-08-19T10:26:05;122.75;;;116.15;;
67503;SDS011;54351;49.108;1.502;2022-08-19T10:28:32;125.95;;;119.13;;
67503;SDS011;54351;49.108;1.502;2022-08-19T10:31:03;134.25;;;127.05;;
67503;SDS011;54351;49.108;1.502;2022-08-19T10:33:30;129.35;;;122.22;;
67503;SDS011;54351;49.108;1.502;2022-08-19T10:36:00;124.57;;;117.70;;
67503;SDS011;54351;49.108;1.502;2022-08-19T10:38:26;121.50;;;114.90;;
67503;SDS011;54351;49.108;1.502;2022-08-19T10:40:53;121.80;;;114.88;;
67503;SDS011;54351;49.108;1.502;2022-08-19T10:43:20;120.25;;;113.78;;
67503;SDS011;54351;49.108;1.502;2022-08-19T10:45:51;128.43;;;121.18;;
67503;SDS011;54351;49.108;1.502;2022-08-19T10:48:19;123.75;;;116.93;;
67503;SDS011;54351;49.108;1.502;2022-08-19T10:50:45;117.90;;;111.35;;
67503;SDS011;54351;49.108;1.502;2022-08-19T10:53:30;112.35;;;106.38;;
67503;SDS011;54351;49.108;1.502;2022-08-19T10:55:56;103.47;;;97.93;;
67503;SDS011;54351;49.108;1.502;2022-08-19T10:58:54;107.60;;;101.45;;
67503;SDS011;54351;49.108;1.502;2022-08-19T11:01:24;103.90;;;98.35;;
67503;SDS011;54351;49.108;1.502;2022-08-19T11:03:50;103.45;;;97.65;;
67503;SDS011;54351;49.108;1.502;2022-08-19T11:06:16;107.97;;;102.15;;
67503;SDS011;54351;49.108;1.502;2022-08-19T11:08:42;105.88;;;100.32;;
67503;SDS011;54351;49.108;1.502;2022-08-19T11:11:12;101.53;;;96.07;;
67503;SDS011;54351;49.108;1.502;2022-08-19T11:13:41;116.95;;;110.57;;
67503;SDS011;54351;49.108;1.502;2022-08-19T11:16:13;101.73;;;96.20;;
67503;SDS011;54351;49.108;1.502;2022-08-19T11:18:41;100.95;;;95.55;;
67503;SDS011;54351;49.108;1.502;2022-08-19T11:23:44;94.32;;;89.20;;
67503;SDS011;54351;49.108;1.502;2022-08-19T11:26:11;106.60;;;100.88;;
67503;SDS011;54351;49.108;1.502;2022-08-19T11:28:37;116.50;;;110.22;;
67503;SDS011;54351;49.108;1.502;2022-08-19T11:31:03;101.50;;;95.97;;
67503;SDS011;54351;49.108;1.502;2022-08-19T11:33:30;103.95;;;97.95;;
67503;SDS011;54351;49.108;1.502;2022-08-19T11:35:58;108.45;;;102.45;;
67503;SDS011;54351;49.108;1.502;2022-08-19T11:38:25;108.18;;;102.45;;
67503;SDS011;54351;49.108;1.502;2022-08-19T11:40:56;104.93;;;99.30;;
67503;SDS011;54351;49.108;1.502;2022-08-19T11:43:22;96.60;;;91.43;;
67503;SDS011;54351;49.108;1.502;2022-08-19T11:45:49;102.97;;;97.22;;
67503;SDS011;54351;49.108;1.502;2022-08-19T11:48:15;102.05;;;96.65;;
67503;SDS011;54351;49.108;1.502;2022-08-19T11:50:41;93.35;;;88.43;;
67503;SDS011;54351;49.108;1.502;2022-08-19T11:53:08;98.03;;;92.85;;
67503;SDS011;54351;49.108;1.502;2022-08-19T11:55:38;97.72;;;92.50;;
67503;SDS011;54351;49.108;1.502;2022-08-19T11:58:05;112.40;;;106.40;;
67503;SDS011;54351;49.108;1.502;2022-08-19T12:00:33;101.93;;;96.38;;
67503;SDS011;54351;49.108;1.502;2022-08-19T12:03:00;106.07;;;99.97;;
67503;SDS011;54351;49.108;1.502;2022-08-19T12:05:26;112.38;;;106.22;;
67503;SDS011;54351;49.108;1.502;2022-08-19T12:07:52;111.03;;;105.00;;
67503;SDS011;54351;49.108;1.502;2022-08-19T12:10:19;99.47;;;94.18;;
67503;SDS011;54351;49.108;1.502;2022-08-19T12:12:45;95.90;;;90.82;;
67503;SDS011;54351;49.108;1.502;2022-08-19T12:15:12;94.60;;;89.60;;
67503;SDS011;54351;49.108;1.502;2022-08-19T12:17:39;93.93;;;88.90;;
67503;SDS011;54351;49.108;1.502;2022-08-19T12:20:06;101.57;;;96.28;;
67503;SDS011;54351;49.108;1.502;2022-08-19T12:22:34;97.10;;;91.43;;
67503;SDS011;54351;49.108;1.502;2022-08-19T12:25:00;99.70;;;94.50;;
67503;SDS011;54351;49.108;1.502;2022-08-19T12:27:26;87.88;;;83.18;;
67503;SDS011;54351;49.108;1.502;2022-08-19T12:29:52;97.22;;;91.53;;
67503;SDS011;54351;49.108;1.502;2022-08-19T12:32:18;104.25;;;98.63;;
67503;SDS011;54351;49.108;1.502;2022-08-19T12:34:44;106.25;;;100.63;;
67503;SDS011;54351;49.108;1.502;2022-08-19T12:37:12;88.13;;;83.47;;
67503;SDS011;54351;49.108;1.502;2022-08-19T12:39:39;99.55;;;94.25;;
67503;SDS011;54351;49.108;1.502;2022-08-19T12:42:07;101.40;;;96.05;;
67503;SDS011;54351;49.108;1.502;2022-08-19T12:44:34;101.43;;;96.03;;
67503;SDS011;54351;49.108;1.502;2022-08-19T12:47:00;99.63;;;94.38;;
67503;SDS011;54351;49.108;1.502;2022-08-19T12:49:28;99.35;;;94.15;;
67503;SDS011;54351;49.108;1.502;2022-08-19T12:51:54;102.00;;;96.60;;
67503;SDS011;54351;49.108;1.502;2022-08-19T12:54:20;77.95;;;73.78;;
67503;SDS011;54351;49.108;1.502;2022-08-19T12:56:46;77.35;;;73.30;;
67503;SDS011;54351;49.108;1.502;2022-08-19T12:59:13;83.60;;;79.18;;
67503;SDS011;54351;49.108;1.502;2022-08-19T13:01:40;80.95;;;76.47;;
67503;SDS011;54351;49.108;1.502;2022-08-19T13:04:06;76.57;;;72.53;;
67503;SDS011;54351;49.108;1.502;2022-08-19T13:06:33;75.35;;;71.40;;
67503;SDS011;54351;49.108;1.502;2022-08-19T13:08:59;79.43;;;75.10;;
67503;SDS011;54351;49.108;1.502;2022-08-19T13:11:25;74.50;;;70.53;;
67503;SDS011;54351;49.108;1.502;2022-08-19T13:13:52;78.00;;;73.82;;
67503;SDS011;54351;49.108;1.502;2022-08-19T13:16:19;71.03;;;67.25;;
67503;SDS011;54351;49.108;1.502;2022-08-19T13:18:46;69.45;;;65.70;;
67503;SDS011;54351;49.108;1.502;2022-08-19T13:21:13;73.25;;;69.32;;
67503;SDS011;54351;49.108;1.502;2022-08-19T13:23:39;79.05;;;74.85;;
67503;SDS011;54351;49.108;1.502;2022-08-19T13:26:07;86.78;;;82.22;;
67503;SDS011;54351;49.108;1.502;2022-08-19T13:28:34;66.32;;;62.72;;
67503;SDS011;54351;49.108;1.502;2022-08-19T13:31:19;58.67;;;55.22;;
67503;SDS011;54351;49.108;1.502;2022-08-19T13:34:04;51.53;;;48.78;;
67503;SDS011;54351;49.108;1.502;2022-08-19T13:36:33;45.10;;;42.72;;
67503;SDS011;54351;49.108;1.502;2022-08-19T13:39:00;45.55;;;43.15;;
67503;SDS011;54351;49.108;1.502;2022-08-19T13:41:26;48.45;;;45.95;;
67503;SDS011;54351;49.108;1.502;2022-08-19T13:43:52;52.92;;;50.05;;
67503;SDS011;54351;49.108;1.502;2022-08-19T13:46:19;62.15;;;58.80;;
67503;SDS011;54351;49.108;1.502;2022-08-19T13:48:45;65.63;;;61.72;;
67503;SDS011;54351;49.108;1.502;2022-08-19T13:51:13;66.18;;;62.65;;
67503;SDS011;54351;49.108;1.502;2022-08-19T13:53:41;57.15;;;54.05;;
67503;SDS011;54351;49.108;1.502;2022-08-19T13:56:12;61.40;;;58.08;;
67503;SDS011;54351;49.108;1.502;2022-08-19T13:58:38;55.90;;;52.97;;
67503;SDS011;54351;49.108;1.502;2022-08-19T14:01:05;75.00;;;70.90;;
67503;SDS011;54351;49.108;1.502;2022-08-19T14:03:31;67.90;;;64.32;;
67503;SDS011;54351;49.108;1.502;2022-08-19T14:05:58;66.00;;;62.58;;
67503;SDS011;54351;49.108;1.502;2022-08-19T14:08:24;65.72;;;62.22;;
67503;SDS011;54351;49.108;1.502;2022-08-19T14:10:52;68.45;;;64.85;;
67503;SDS011;54351;49.108;1.502;2022-08-19T14:13:22;73.97;;;69.57;;
67503;SDS011;54351;49.108;1.502;2022-08-19T14:15:49;76.70;;;72.70;;
67503;SDS011;54351;49.108;1.502;2022-08-19T14:18:15;71.20;;;67.30;;
67503;SDS011;54351;49.108;1.502;2022-08-19T14:20:41;81.03;;;76.75;;
67503;SDS011;54351;49.108;1.502;2022-08-19T14:23:08;73.97;;;70.10;;
67503;SDS011;54351;49.108;1.502;2022-08-19T14:25:34;63.38;;;60.08;;
67503;SDS011;54351;49.108;1.502;2022-08-19T14:28:00;64.65;;;61.25;;
67503;SDS011;54351;49.108;1.502;2022-08-19T14:30:28;65.90;;;62.50;;
67503;SDS011;54351;49.108;1.502;2022-08-19T14:32:55;70.43;;;66.72;;
67503;SDS011;54351;49.108;1.502;2022-08-19T14:35:21;63.00;;;59.70;;
67503;SDS011;54351;49.108;1.502;2022-08-19T14:37:48;73.55;;;69.68;;
67503;SDS011;54351;49.108;1.502;2022-08-19T14:40:16;65.72;;;62.30;;